Time;durP1;ratioP1;P1;durP2;ratioP2;P2;SDS_P1;SDS_P2;PMS_P1;PMS_P2;Temp;Humidity;BMP_temperature;BMP_pressure;BME280_temperature;BME280_humidity;BME280_pressure;Samples;Min_cycle;Max_cycle;Signal;HPM_P1;HPM_P2
2023/04/07 00:01:14;;;;;;;;;;;18.00;99.90;;;;;;5100137;28;19908;-70
2023/04/07 00:03:42;;;;;;;;;;;18.00;99.90;;;;;;5101815;28;19961;-69
2023/04/07 00:06:09;;;;;;;;;;;18.00;99.90;;;;;;5101220;28;20284;-69
2023/04/07 00:08:36;;;;;;;;;;;17.90;99.90;;;;;;5100507;28;20201;-68
2023/04/07 00:11:02;;;;;;;;;;;17.90;99.90;;;;;;5100628;28;20186;-68
2023/04/07 00:13:29;;;;;;;;;;;17.90;99.90;;;;;;5099394;28;20365;-70
2023/04/07 00:15:56;;;;;;;;;;;17.90;99.90;;;;;;5083018;28;20393;-71
2023/04/07 00:18:22;;;;;;;;;;;17.90;99.90;;;;;;5099245;28;20353;-69
2023/04/07 00:20:49;;;;;;;;;;;17.90;99.90;;;;;;5101134;28;19988;-70
2023/04/07 00:23:16;;;;;;;;;;;17.80;99.90;;;;;;5100485;28;19972;-68
2023/04/07 00:25:42;;;;;;;;;;;17.80;99.90;;;;;;5100820;28;19908;-68
2023/04/07 00:28:09;;;;;;;;;;;17.80;99.90;;;;;;5100399;28;20059;-67
2023/04/07 00:30:36;;;;;;;;;;;17.70;99.90;;;;;;5098729;28;20148;-68
2023/04/07 00:33:02;;;;;;;;;;;17.70;99.90;;;;;;5100588;28;19916;-68
2023/04/07 00:35:29;;;;;;;;;;;17.70;99.90;;;;;;5098776;28;19908;-68
2023/04/07 00:37:56;;;;;;;;;;;17.70;99.90;;;;;;5082320;28;19933;-68
2023/04/07 00:40:22;;;;;;;;;;;17.70;99.90;;;;;;5098614;28;20002;-67
2023/04/07 00:42:49;;;;;;;;;;;17.80;99.90;;;;;;5101191;28;19908;-69
2023/04/07 00:45:16;;;;;;;;;;;17.90;99.90;;;;;;5101029;28;20006;-68
2023/04/07 00:47:42;;;;;;;;;;;17.90;99.90;;;;;;5099034;28;20268;-68
2023/04/07 00:50:09;;;;;;;;;;;18.00;99.90;;;;;;5099969;28;19998;-69
2023/04/07 00:52:36;;;;;;;;;;;18.10;99.90;;;;;;5098413;28;19923;-68
2023/04/07 00:55:02;;;;;;;;;;;18.10;99.90;;;;;;5100732;28;19908;-69
2023/04/07 00:57:29;;;;;;;;;;;18.40;99.90;;;;;;5096283;28;19992;-71
2023/04/07 00:59:56;;;;;;;;;;;18.60;99.90;;;;;;5099894;28;19915;-68
2023/04/07 01:02:28;;;;;;;;;;;18.80;99.90;;;;;;5098952;28;20349;-69
2023/04/07 01:04:58;;;;;;;;;;;18.80;99.90;;;;;;5100685;28;19961;-68
2023/04/07 01:07:32;;;;;;;;;;;18.90;99.90;;;;;;5098337;28;19907;-68
2023/04/07 01:10:02;;;;;;;;;;;19.10;99.90;;;;;;5099841;28;19908;-68
2023/04/07 01:12:40;;;;;;;;;;;19.30;99.90;;;;;;5097111;28;19911;-69
2023/04/07 01:15:10;;;;;;;;;;;19.40;99.90;;;;;;5099727;28;20002;-67
2023/04/07 01:17:48;;;;;;;;;;;19.40;99.90;;;;;;5098011;28;20356;-71
2023/04/07 01:20:17;;;;;;;;;;;19.50;99.90;;;;;;5099333;28;19908;-72
2023/04/07 01:22:48;;;;;;;;;;;19.80;99.90;;;;;;5097766;28;20491;-71
2023/04/07 01:25:33;;;;;;;;;;;19.90;99.90;;;;;;5099243;28;19915;-67
2023/04/07 01:28:08;;;;;;;;;;;20.10;99.90;;;;;;5081595;28;19999;-67
2023/04/07 01:30:37;;;;;;;;;;;20.20;99.90;;;;;;5097333;28;20101;-66
2023/04/07 01:33:05;;;;;;;;;;;20.30;99.90;;;;;;5099438;28;19923;-69
2023/04/07 01:35:32;;;;;;;;;;;20.50;99.90;;;;;;5097020;28;19908;-68
2023/04/07 01:37:59;;;;;;;;;;;20.70;99.90;;;;;;5099860;28;20062;-67
2023/04/07 01:40:27;;;;;;;;;;;20.80;99.90;;;;;;5098987;28;20002;-67
2023/04/07 01:42:55;;;;;;;;;;;21.00;99.90;;;;;;5099085;28;19908;-71
2023/04/07 01:45:23;;;;;;;;;;;21.10;99.90;;;;;;5099255;28;19950;-68
2023/04/07 01:47:49;;;;;;;;;;;21.30;99.90;;;;;;5096913;28;19998;-67
2023/04/07 01:50:16;;;;;;;;;;;21.60;99.90;;;;;;5099057;28;20549;-69
2023/04/07 01:52:44;;;;;;;;;;;21.90;99.90;;;;;;5096851;28;19916;-65
2023/04/07 01:55:10;;;;;;;;;;;21.90;99.90;;;;;;5099254;28;20268;-68
2023/04/07 01:57:37;;;;;;;;;;;21.80;99.90;;;;;;5077992;28;19908;-67
2023/04/07 02:00:04;;;;;;;;;;;21.60;99.90;;;;;;5099694;28;19908;-66
2023/04/07 02:02:33;;;;;;;;;;;21.50;99.90;;;;;;5098290;28;19959;-67
2023/04/07 02:05:04;;;;;;;;;;;21.20;99.90;;;;;;5099865;28;19915;-66
2023/04/07 02:07:45;;;;;;;;;;;21.10;99.90;;;;;;5097297;28;19914;-67
2023/04/07 02:10:14;;;;;;;;;;;21.40;99.90;;;;;;5099546;28;19912;-66
2023/04/07 02:12:41;;;;;;;;;;;21.70;99.90;;;;;;5095629;28;20090;-66
2023/04/07 02:15:10;;;;;;;;;;;22.10;99.90;;;;;;5098913;28;20193;-69
2023/04/07 02:17:38;;;;;;;;;;;22.30;99.90;;;;;;5096738;28;20287;-70
2023/04/07 02:20:09;;;;;;;;;;;22.40;99.90;;;;;;5099514;28;19908;-66
2023/04/07 02:22:37;;;;;;;;;;;22.50;99.90;;;;;;5096615;28;19965;-69
2023/04/07 02:25:24;;;;;;;;;;;22.80;99.90;;;;;;5098767;28;19990;-67
2023/04/07 02:27:51;;;;;;;;;;;22.90;99.90;;;;;;5096026;28;19911;-75
2023/04/07 02:30:17;;;;;;;;;;;23.10;99.90;;;;;;5099203;28;20037;-68
2023/04/07 02:32:44;;;;;;;;;;;23.20;99.90;;;;;;5095295;28;20403;-66
2023/04/07 02:35:11;;;;;;;;;;;23.00;99.90;;;;;;5099085;28;20288;-66
2023/04/07 02:37:38;;;;;;;;;;;23.00;99.90;;;;;;5096578;28;20364;-68
2023/04/07 02:40:06;;;;;;;;;;;22.90;99.90;;;;;;5098499;28;19965;-66
2023/04/07 02:42:32;;;;;;;;;;;22.90;99.90;;;;;;5079961;28;20376;-68
2023/04/07 02:44:59;;;;;;;;;;;22.90;99.90;;;;;;5096056;28;20548;-67
2023/04/07 02:47:26;;;;;;;;;;;23.30;99.90;;;;;;5098103;28;19908;-69
2023/04/07 02:49:52;;;;;;;;;;;24.00;99.90;;;;;;5097515;28;19908;-67
2023/04/07 02:52:19;;;;;;;;;;;24.60;99.90;;;;;;5101716;28;19951;-68
2023/04/07 02:54:46;;;;;;;;;;;25.30;99.90;;;;;;5097135;28;19908;-67
2023/04/07 02:57:13;;;;;;;;;;;26.30;99.90;;;;;;5099416;28;20030;-70
2023/04/07 02:59:40;;;;;;;;;;;27.30;99.90;;;;;;5097747;28;19994;-69
2023/04/07 03:02:06;;;;;;;;;;;28.20;99.40;;;;;;5097578;28;19946;-66
2023/04/07 03:04:33;;;;;;;;;;;28.70;98.30;;;;;;5099208;28;20245;-66
2023/04/07 03:07:00;;;;;;;;;;;29.60;98.70;;;;;;5096260;28;19915;-67
2023/04/07 03:09:27;;;;;;;;;;;30.40;96.30;;;;;;5098390;28;20068;-67
2023/04/07 03:11:53;;;;;;;;;;;31.40;93.20;;;;;;5096095;28;20288;-68
2023/04/07 03:14:20;;;;;;;;;;;32.10;91.80;;;;;;5098737;28;19908;-66
2023/04/07 03:16:47;;;;;;;;;;;32.50;90.10;;;;;;5095928;28;19912;-67
2023/04/07 03:19:15;;;;;;;;;;;33.40;89.20;;;;;;5098379;28;20371;-69
2023/04/07 03:21:41;;;;;;;;;;;33.80;86.70;;;;;;5097796;28;19907;-67
2023/04/07 03:24:08;;;;;;;;;;;33.90;85.90;;;;;;5097812;28;20105;-67
2023/04/07 03:26:35;;;;;;;;;;;34.10;85.30;;;;;;5097911;28;20379;-68
2023/04/07 03:29:01;;;;;;;;;;;34.20;83.60;;;;;;5095675;28;20328;-66
2023/04/07 03:31:29;;;;;;;;;;;34.60;81.70;;;;;;5099298;28;20364;-66
2023/04/07 03:33:55;;;;;;;;;;;33.90;81.50;;;;;;5076621;28;20299;-66
2023/04/07 03:36:23;;;;;;;;;;;34.10;82.40;;;;;;5100091;28;19999;-68
2023/04/07 03:38:49;;;;;;;;;;;34.50;79.90;;;;;;5096052;28;19943;-66
2023/04/07 03:41:16;;;;;;;;;;;34.10;80.70;;;;;;5097579;28;20002;-67
2023/04/07 03:43:43;;;;;;;;;;;35.00;80.20;;;;;;5098895;28;19954;-69
2023/04/07 03:46:09;;;;;;;;;;;35.10;78.40;;;;;;5094763;28;20149;-69
2023/04/07 03:48:36;;;;;;;;;;;35.50;77.70;;;;;;5098702;28;20196;-68
2023/04/07 03:51:03;;;;;;;;;;;35.10;78.40;;;;;;5095709;28;19907;-67
2023/04/07 03:53:30;;;;;;;;;;;34.80;77.40;;;;;;5098066;28;19963;-70
2023/04/07 03:55:56;;;;;;;;;;;35.00;78.40;;;;;;5095675;28;19908;-65
2023/04/07 03:58:23;;;;;;;;;;;36.00;77.50;;;;;;5097993;28;20019;-67
2023/04/07 04:00:50;;;;;;;;;;;36.30;74.40;;;;;;5098082;28;20348;-68
2023/04/07 04:03:16;;;;;;;;;;;34.80;77.50;;;;;;5078542;28;20154;-65
2023/04/07 04:05:43;;;;;;;;;;;34.10;79.80;;;;;;5098670;28;19953;-65
2023/04/07 04:08:09;;;;;;;;;;;35.40;77.50;;;;;;5096396;28;20376;-66
2023/04/07 04:10:36;;;;;;;;;;;35.40;77.30;;;;;;5098808;28;19908;-66
2023/04/07 04:13:05;;;;;;;;;;;36.30;76.30;;;;;;5096015;28;19915;-66
2023/04/07 04:15:32;;;;;;;;;;;37.40;73.90;;;;;;5098895;28;19977;-69
2023/04/07 04:17:58;;;;;;;;;;;37.90;71.70;;;;;;5094948;28;19915;-66
2023/04/07 04:20:25;;;;;;;;;;;37.30;69.30;;;;;;5099788;28;20303;-67
2023/04/07 04:22:51;;;;;;;;;;;37.10;72.40;;;;;;5097396;28;19907;-66
2023/04/07 04:25:19;;;;;;;;;;;36.10;72.80;;;;;;5097339;28;19964;-65
2023/04/07 04:27:45;;;;;;;;;;;36.40;72.70;;;;;;5098472;28;20399;-66
2023/04/07 04:30:12;;;;;;;;;;;36.90;72.50;;;;;;5096021;28;20084;-65
2023/04/07 04:32:39;;;;;;;;;;;37.50;70.00;;;;;;5103039;28;19916;-66
2023/04/07 04:35:06;;;;;;;;;;;36.90;70.60;;;;;;5098666;28;19908;-65
2023/04/07 04:37:33;;;;;;;;;;;35.70;71.60;;;;;;5103060;28;19960;-66
2023/04/07 04:40:00;;;;;;;;;;;36.10;72.20;;;;;;5100075;28;19996;-66
2023/04/07 04:42:27;;;;;;;;;;;36.00;71.90;;;;;;5102009;28;20395;-67
2023/04/07 04:44:54;;;;;;;;;;;36.30;69.40;;;;;;5102345;28;20276;-67
2023/04/07 04:47:20;;;;;;;;;;;34.90;73.50;;;;;;5098754;28;20337;-71
2023/04/07 04:49:47;;;;;;;;;;;34.80;72.00;;;;;;5084176;28;19915;-66
2023/04/07 04:52:14;;;;;;;;;;;33.60;76.40;;;;;;5098395;28;20349;-70
2023/04/07 04:54:40;;;;;;;;;;;33.50;74.60;;;;;;5102232;28;19919;-68
2023/04/07 04:57:07;;;;;;;;;;;33.50;75.40;;;;;;5099867;28;20004;-66
2023/04/07 04:59:34;;;;;;;;;;;34.20;74.90;;;;;;5100935;28;20386;-69
2023/04/07 05:02:00;;;;;;;;;;;34.90;73.60;;;;;;5100530;28;20364;-70
2023/04/07 05:04:27;;;;;;;;;;;35.10;71.90;;;;;;5102549;28;19915;-66
2023/04/07 05:06:53;;;;;;;;;;;34.00;74.90;;;;;;5100716;28;19915;-71
2023/04/07 05:09:20;;;;;;;;;;;32.80;76.70;;;;;;5099763;28;20175;-68
2023/04/07 05:11:47;;;;;;;;;;;33.60;75.40;;;;;;5101509;28;19908;-69
2023/04/07 05:14:13;;;;;;;;;;;33.10;75.50;;;;;;5098818;28;19912;-66
2023/04/07 05:16:40;;;;;;;;;;;34.00;76.40;;;;;;5101293;28;19912;-65
2023/04/07 05:19:06;;;;;;;;;;;35.30;73.60;;;;;;5100409;28;20034;-66
2023/04/07 05:21:33;;;;;;;;;;;36.70;71.20;;;;;;5099182;28;19915;-66
2023/04/07 05:24:00;;;;;;;;;;;36.40;70.00;;;;;;5099854;28;20344;-66
2023/04/07 05:26:26;;;;;;;;;;;34.70;73.20;;;;;;5099111;28;19908;-65
2023/04/07 05:28:53;;;;;;;;;;;34.70;73.60;;;;;;5097398;28;19965;-68
2023/04/07 05:31:20;;;;;;;;;;;35.10;72.70;;;;;;5099384;28;20356;-66
2023/04/07 05:33:46;;;;;;;;;;;34.70;73.90;;;;;;5098209;28;20002;-66
2023/04/07 05:36:13;;;;;;;;;;;35.50;74.30;;;;;;5099530;28;19907;-65
2023/04/07 05:38:40;;;;;;;;;;;36.70;73.10;;;;;;5097670;28;19908;-68
2023/04/07 05:41:07;;;;;;;;;;;37.60;72.30;;;;;;5099995;28;19920;-67
2023/04/07 05:43:34;;;;;;;;;;;38.30;70.00;;;;;;5099009;28;19908;-66
2023/04/07 05:46:00;;;;;;;;;;;38.50;70.00;;;;;;5098722;28;20396;-67
2023/04/07 05:48:27;;;;;;;;;;;37.60;70.40;;;;;;5098590;28;19911;-66
2023/04/07 05:50:53;;;;;;;;;;;37.40;71.50;;;;;;5097417;28;19908;-66
2023/04/07 05:53:20;;;;;;;;;;;37.40;72.10;;;;;;5098945;28;19916;-67
2023/04/07 05:55:47;;;;;;;;;;;37.80;70.90;;;;;;5097225;28;19908;-66
2023/04/07 05:58:13;;;;;;;;;;;37.80;71.60;;;;;;5098394;28;19908;-66
2023/04/07 06:00:40;;;;;;;;;;;37.70;71.00;;;;;;5098285;28;19912;-67
2023/04/07 06:03:07;;;;;;;;;;;37.90;71.40;;;;;;5099399;28;19918;-67
2023/04/07 06:05:34;;;;;;;;;;;37.90;71.50;;;;;;5099043;28;19956;-66
2023/04/07 06:08:00;;;;;;;;;;;38.50;70.90;;;;;;5097002;28;20150;-65
2023/04/07 06:10:27;;;;;;;;;;;38.00;70.40;;;;;;5098621;28;19963;-67
2023/04/07 06:12:54;;;;;;;;;;;36.30;72.50;;;;;;5096907;28;20352;-66
2023/04/07 06:15:21;;;;;;;;;;;34.50;75.70;;;;;;5098685;28;20005;-65
2023/04/07 06:17:48;;;;;;;;;;;32.70;78.80;;;;;;5096064;28;20003;-68
2023/04/07 06:20:14;;;;;;;;;;;31.20;82.80;;;;;;5098968;28;19915;-67
2023/04/07 06:22:41;;;;;;;;;;;29.90;86.50;;;;;;5098221;28;19908;-65
2023/04/07 06:25:08;;;;;;;;;;;28.80;90.00;;;;;;5097778;28;20143;-67
2023/04/07 06:27:35;;;;;;;;;;;27.90;91.40;;;;;;5097777;28;20371;-65
2023/04/07 06:30:01;;;;;;;;;;;27.30;92.90;;;;;;5096403;28;20338;-67
2023/04/07 06:32:28;;;;;;;;;;;26.70;94.30;;;;;;5098602;28;20368;-66
2023/04/07 06:34:55;;;;;;;;;;;26.40;95.00;;;;;;5096498;28;20070;-68
2023/04/07 06:37:23;;;;;;;;;;;26.00;96.10;;;;;;5098430;28;19954;-69
2023/04/07 06:39:50;;;;;;;;;;;25.70;97.20;;;;;;5096409;28;20392;-68
2023/04/07 06:42:17;;;;;;;;;;;25.40;98.30;;;;;;5098646;28;20060;-66
2023/04/07 06:44:43;;;;;;;;;;;25.20;99.10;;;;;;5079904;28;20381;-66
2023/04/07 06:47:10;;;;;;;;;;;24.90;99.50;;;;;;5096713;28;20138;-65
2023/04/07 06:49:37;;;;;;;;;;;24.70;98.60;;;;;;5097981;28;19907;-65
2023/04/07 06:52:04;;;;;;;;;;;24.50;98.40;;;;;;5096375;28;19908;-66
2023/04/07 06:54:30;;;;;;;;;;;24.40;99.00;;;;;;5097647;28;20283;-65
2023/04/07 06:56:57;;;;;;;;;;;24.30;98.30;;;;;;5096070;28;20205;-65
2023/04/07 06:59:24;;;;;;;;;;;24.10;98.60;;;;;;5097420;28;19961;-66
2023/04/07 07:01:50;;;;;;;;;;;24.10;98.40;;;;;;5096772;28;19908;-67
2023/04/07 07:04:17;;;;;;;;;;;24.00;98.60;;;;;;5097903;28;19931;-68
2023/04/07 07:06:44;;;;;;;;;;;24.00;98.60;;;;;;5097669;28;19915;-69
2023/04/07 07:09:10;;;;;;;;;;;23.90;99.10;;;;;;5095339;28;19918;-66
2023/04/07 07:11:37;;;;;;;;;;;23.90;99.30;;;;;;5097609;28;19938;-68
2023/04/07 07:14:04;;;;;;;;;;;23.80;99.10;;;;;;5096175;28;20383;-69
2023/04/07 07:16:30;;;;;;;;;;;23.80;99.40;;;;;;5097591;28;19908;-65
2023/04/07 07:18:57;;;;;;;;;;;23.80;99.70;;;;;;5095556;28;20105;-66
2023/04/07 07:21:24;;;;;;;;;;;23.70;99.50;;;;;;5097872;28;20364;-66
2023/04/07 07:23:51;;;;;;;;;;;23.60;99.80;;;;;;5098348;28;19953;-65
2023/04/07 07:26:17;;;;;;;;;;;23.60;99.90;;;;;;5097865;28;19911;-65
2023/04/07 07:28:45;;;;;;;;;;;23.50;99.90;;;;;;5097999;28;19915;-66
2023/04/07 07:31:13;;;;;;;;;;;23.50;99.90;;;;;;5095803;28;20082;-66
2023/04/07 07:33:42;;;;;;;;;;;23.50;99.90;;;;;;5097349;28;19920;-66
2023/04/07 07:36:09;;;;;;;;;;;23.40;99.90;;;;;;5096161;28;20403;-66
2023/04/07 07:38:36;;;;;;;;;;;23.40;99.90;;;;;;5097646;28;19970;-68
2023/04/07 07:41:02;;;;;;;;;;;23.50;99.90;;;;;;5095255;28;19930;-66
2023/04/07 07:43:29;;;;;;;;;;;23.30;99.90;;;;;;5097368;28;19908;-67
2023/04/07 07:45:56;;;;;;;;;;;23.30;99.90;;;;;;5096569;28;19953;-65
2023/04/07 07:48:22;;;;;;;;;;;23.30;99.90;;;;;;5097210;28;19908;-66
2023/04/07 07:50:50;;;;;;;;;;;23.20;99.90;;;;;;5096983;28;19908;-69
2023/04/07 07:53:17;;;;;;;;;;;23.10;99.90;;;;;;5095403;28;20364;-66
2023/04/07 07:55:44;;;;;;;;;;;23.00;99.90;;;;;;5097446;28;19911;-67
2023/04/07 07:58:11;;;;;;;;;;;22.90;99.90;;;;;;5095749;28;19930;-68
2023/04/07 08:00:38;;;;;;;;;;;22.80;99.90;;;;;;5097051;28;19999;-65
2023/04/07 08:03:04;;;;;;;;;;;22.80;99.90;;;;;;5097811;28;19918;-66
2023/04/07 08:05:31;;;;;;;;;;;22.70;99.90;;;;;;5095976;28;20548;-65
2023/04/07 08:07:58;;;;;;;;;;;22.50;99.90;;;;;;5101326;28;20010;-66
2023/04/07 08:10:25;;;;;;;;;;;22.60;99.90;;;;;;5099351;28;19915;-67
2023/04/07 08:12:52;;;;;;;;;;;22.50;99.90;;;;;;5100501;28;20106;-65
2023/04/07 08:15:18;;;;;;;;;;;22.50;99.90;;;;;;5100026;28;19959;-66
2023/04/07 08:17:45;;;;;;;;;;;22.50;99.90;;;;;;5100096;28;19927;-66
2023/04/07 08:20:12;;;;;;;;;;;22.40;99.90;;;;;;5101937;28;20002;-66
2023/04/07 08:22:38;;;;;;;;;;;22.40;99.90;;;;;;5098635;28;20382;-66
2023/04/07 08:25:05;;;;;;;;;;;22.40;99.90;;;;;;5100882;28;20006;-66
2023/04/07 08:27:32;;;;;;;;;;;22.30;99.90;;;;;;5099603;28;20356;-67
2023/04/07 08:29:59;;;;;;;;;;;22.40;99.90;;;;;;5099863;28;20344;-67
2023/04/07 08:32:33;;;;;;;;;;;22.30;99.90;;;;;;5100217;28;20015;-66
2023/04/07 08:35:00;;;;;;;;;;;22.30;99.90;;;;;;5100170;28;19912;-67
2023/04/07 08:37:26;;;;;;;;;;;22.20;99.90;;;;;;5099902;28;19939;-66
2023/04/07 08:39:53;;;;;;;;;;;22.20;99.90;;;;;;5098668;28;20190;-68
2023/04/07 08:42:21;;;;;;;;;;;22.20;99.90;;;;;;5100754;28;19918;-68
2023/04/07 08:44:50;;;;;;;;;;;22.10;99.90;;;;;;5098954;28;19994;-66
2023/04/07 08:47:16;;;;;;;;;;;22.10;99.90;;;;;;5101168;28;20425;-67
2023/04/07 08:49:44;;;;;;;;;;;22.20;99.90;;;;;;5098204;28;19968;-65
2023/04/07 08:52:15;;;;;;;;;;;22.20;99.90;;;;;;5100426;28;19908;-65
2023/04/07 08:54:42;;;;;;;;;;;22.20;99.90;;;;;;5098062;28;20669;-65
2023/04/07 08:57:09;;;;;;;;;;;22.20;99.90;;;;;;5100606;28;20149;-66
2023/04/07 08:59:36;;;;;;;;;;;22.20;99.90;;;;;;5098953;28;19907;-66
2023/04/07 09:02:04;;;;;;;;;;;22.20;99.90;;;;;;5099122;28;19908;-67
2023/04/07 09:04:31;;;;;;;;;;;22.20;99.90;;;;;;5099161;28;19914;-69
2023/04/07 09:06:58;;;;;;;;;;;22.10;99.90;;;;;;5098337;28;19965;-69
2023/04/07 09:09:25;;;;;;;;;;;22.10;99.90;;;;;;5100139;28;19915;-68
2023/04/07 09:11:52;;;;;;;;;;;22.00;99.90;;;;;;5098204;28;19931;-68
2023/04/07 09:14:20;;;;;;;;;;;22.00;99.90;;;;;;5081701;28;19919;-69
2023/04/07 09:16:47;;;;;;;;;;;21.90;99.90;;;;;;5097043;28;20007;-65
2023/04/07 09:19:14;;;;;;;;;;;21.90;99.90;;;;;;5099174;28;20003;-66
2023/04/07 09:21:48;;;;;;;;;;;21.70;99.90;;;;;;5098707;28;19939;-66
2023/04/07 09:24:22;;;;;;;;;;;21.70;99.90;;;;;;5100244;28;19908;-66
2023/04/07 09:26:48;;;;;;;;;;;21.70;99.90;;;;;;5096872;28;19912;-65
2023/04/07 09:29:19;;;;;;;;;;;21.60;99.90;;;;;;5100003;28;20014;-67
2023/04/07 09:31:48;;;;;;;;;;;21.60;99.90;;;;;;5098023;28;20280;-66
2023/04/07 09:34:26;;;;;;;;;;;21.60;99.90;;;;;;5099625;28;20076;-68
2023/04/07 09:36:53;;;;;;;;;;;21.60;99.90;;;;;;5097311;28;20363;-65
2023/04/07 09:39:20;;;;;;;;;;;21.60;99.90;;;;;;5099299;28;19947;-68
2023/04/07 09:41:47;;;;;;;;;;;21.60;99.90;;;;;;5097811;28;19920;-67
2023/04/07 09:44:13;;;;;;;;;;;21.60;99.90;;;;;;5099509;28;19907;-69
2023/04/07 09:46:56;;;;;;;;;;;21.60;99.90;;;;;;5099083;28;20405;-65
2023/04/07 09:49:24;;;;;;;;;;;21.60;99.90;;;;;;5098925;28;19915;-67
2023/04/07 09:52:08;;;;;;;;;;;21.70;99.90;;;;;;5096877;28;20398;-66
2023/04/07 09:54:36;;;;;;;;;;;21.80;99.90;;;;;;5080313;28;20018;-68
2023/04/07 09:57:07;;;;;;;;;;;21.80;99.90;;;;;;5097306;28;19908;-66
2023/04/07 09:59:35;;;;;;;;;;;21.80;99.90;;;;;;5098516;28;20089;-66
2023/04/07 10:02:02;;;;;;;;;;;21.80;99.90;;;;;;5097652;28;19908;-68
2023/04/07 10:04:29;;;;;;;;;;;21.80;99.90;;;;;;5099386;28;19911;-67
2023/04/07 10:06:57;;;;;;;;;;;21.80;99.90;;;;;;5097280;28;20106;-68
2023/04/07 10:09:24;;;;;;;;;;;21.80;99.90;;;;;;5098853;28;19960;-66
2023/04/07 10:11:52;;;;;;;;;;;21.80;99.90;;;;;;5098036;28;20103;-67
2023/04/07 10:14:20;;;;;;;;;;;21.80;99.90;;;;;;5098712;28;19920;-68
2023/04/07 10:16:50;;;;;;;;;;;21.90;99.90;;;;;;5098807;28;20322;-67
2023/04/07 10:19:18;;;;;;;;;;;21.90;99.90;;;;;;5098048;28;20360;-67
2023/04/07 10:21:45;;;;;;;;;;;21.90;99.90;;;;;;5098373;28;19908;-68
2023/04/07 10:24:19;;;;;;;;;;;21.90;99.90;;;;;;5096053;28;20237;-70
2023/04/07 10:26:50;;;;;;;;;;;21.90;99.90;;;;;;5098145;28;19908;-65
2023/04/07 10:29:18;;;;;;;;;;;21.90;99.90;;;;;;5097073;28;20687;-67
2023/04/07 10:31:45;;;;;;;;;;;21.90;99.90;;;;;;5079871;28;19908;-66
2023/04/07 10:34:12;;;;;;;;;;;21.90;99.90;;;;;;5096582;28;19916;-68
2023/04/07 10:36:56;;;;;;;;;;;21.80;99.90;;;;;;5098664;28;19953;-67
2023/04/07 10:39:23;;;;;;;;;;;21.60;99.90;;;;;;5097991;28;19908;-66
2023/04/07 10:41:51;;;;;;;;;;;21.40;99.90;;;;;;5098294;28;19920;-67
2023/04/07 10:44:43;;;;;;;;;;;21.20;99.90;;;;;;5096488;28;19919;-69
2023/04/07 10:47:10;;;;;;;;;;;21.00;99.90;;;;;;5089513;28;19914;-67
2023/04/07 10:49:36;;;;;;;;;;;20.80;99.90;;;;;;5098684;28;20010;-68
2023/04/07 10:52:12;;;;;;;;;;;20.50;99.90;;;;;;5095661;28;19912;-70
2023/04/07 10:54:39;;;;;;;;;;;20.40;99.90;;;;;;5098641;28;19915;-68
2023/04/07 10:57:10;;;;;;;;;;;20.20;99.90;;;;;;5096258;28;20533;-67
2023/04/07 10:59:37;;;;;;;;;;;20.00;99.90;;;;;;5098292;28;19915;-68
2023/04/07 11:02:13;;;;;;;;;;;19.90;99.90;;;;;;5095741;28;19998;-70
2023/04/07 11:04:41;;;;;;;;;;;19.80;99.90;;;;;;5098283;28;19930;-69
2023/04/07 11:07:08;;;;;;;;;;;19.70;99.90;;;;;;5095969;28;19911;-68
2023/04/07 11:09:35;;;;;;;;;;;19.50;99.90;;;;;;5097692;28;20170;-66
2023/04/07 11:12:01;;;;;;;;;;;19.40;99.90;;;;;;5095613;28;19915;-67
2023/04/07 11:14:29;;;;;;;;;;;19.30;99.90;;;;;;5098524;28;19915;-67
2023/04/07 11:16:56;;;;;;;;;;;19.10;99.90;;;;;;5097947;28;19908;-70
2023/04/07 11:19:22;;;;;;;;;;;19.10;99.90;;;;;;5096208;28;20105;-67
2023/04/07 11:21:49;;;;;;;;;;;19.00;99.90;;;;;;5097801;28;19915;-69
2023/04/07 11:24:32;;;;;;;;;;;18.90;99.90;;;;;;5095803;28;19908;-68
2023/04/07 11:26:58;;;;;;;;;;;18.90;99.90;;;;;;5097299;28;19961;-69
2023/04/07 11:29:34;;;;;;;;;;;18.90;99.90;;;;;;5096874;28;20623;-68
2023/04/07 11:32:01;;;;;;;;;;;18.90;99.90;;;;;;5097047;28;19908;-69
2023/04/07 11:34:32;;;;;;;;;;;18.90;99.90;;;;;;5097370;28;20069;-67
2023/04/07 11:37:17;;;;;;;;;;;18.90;99.90;;;;;;5097687;28;19961;-67
2023/04/07 11:39:47;;;;;;;;;;;18.80;99.90;;;;;;5098049;28;19916;-68
2023/04/07 11:42:13;;;;;;;;;;;18.80;99.90;;;;;;5098761;28;20426;-68
2023/04/07 11:44:46;;;;;;;;;;;18.80;99.90;;;;;;5101767;28;20375;-67
2023/04/07 11:47:12;;;;;;;;;;;18.70;99.90;;;;;;5099616;28;20095;-69
2023/04/07 11:49:45;;;;;;;;;;;18.80;99.90;;;;;;5101840;28;20075;-68
2023/04/07 11:52:12;;;;;;;;;;;18.80;99.90;;;;;;5099187;28;20276;-69
2023/04/07 11:54:42;;;;;;;;;;;18.80;99.90;;;;;;5101734;28;19918;-68
2023/04/07 11:57:12;;;;;;;;;;;18.70;99.90;;;;;;5099460;28;19907;-69
2023/04/07 11:59:39;;;;;;;;;;;18.70;99.90;;;;;;5101730;28;19915;-69
2023/04/07 12:02:07;;;;;;;;;;;18.70;99.90;;;;;;5101361;28;19947;-68
2023/04/07 12:04:35;;;;;;;;;;;18.60;99.90;;;;;;5102800;28;19915;-67
2023/04/07 12:07:11;;;;;;;;;;;18.60;99.90;;;;;;5103541;28;19908;-69
2023/04/07 12:09:38;;;;;;;;;;;18.60;99.90;;;;;;5101632;28;19919;-67
2023/04/07 12:12:06;;;;;;;;;;;18.60;99.90;;;;;;5101160;28;19907;-67
2023/04/07 12:14:33;;;;;;;;;;;18.50;99.90;;;;;;5100516;28;19923;-68
2023/04/07 12:17:02;;;;;;;;;;;18.40;99.90;;;;;;5100986;28;19951;-67
2023/04/07 12:19:31;;;;;;;;;;;18.40;99.90;;;;;;5098681;28;20544;-67
2023/04/07 12:21:58;;;;;;;;;;;18.40;99.90;;;;;;5101146;28;19908;-67
2023/04/07 12:24:24;;;;;;;;;;;18.40;99.90;;;;;;5099538;28;20002;-67
2023/04/07 12:26:51;;;;;;;;;;;18.30;99.90;;;;;;5101153;28;19912;-66
2023/04/07 12:29:19;;;;;;;;;;;18.30;99.90;;;;;;5098174;28;20100;-67
2023/04/07 12:31:45;;;;;;;;;;;18.30;99.90;;;;;;5100945;28;19908;-69
2023/04/07 12:34:12;;;;;;;;;;;18.20;99.90;;;;;;5099741;28;19916;-70
2023/04/07 12:36:38;;;;;;;;;;;18.20;99.90;;;;;;5100570;28;19922;-68
2023/04/07 12:39:05;;;;;;;;;;;18.20;99.90;;;;;;5100416;28;20081;-68
2023/04/07 12:41:32;;;;;;;;;;;18.20;99.90;;;;;;5098501;28;20239;-67
2023/04/07 12:43:59;;;;;;;;;;;18.20;99.90;;;;;;5101325;28;19994;-67
2023/04/07 12:46:25;;;;;;;;;;;18.10;99.90;;;;;;5099618;28;20367;-66
2023/04/07 12:48:52;;;;;;;;;;;18.10;99.90;;;;;;5100848;28;19919;-66
2023/04/07 12:51:19;;;;;;;;;;;18.10;99.90;;;;;;5098537;28;20082;-68
2023/04/07 12:53:46;;;;;;;;;;;18.00;99.90;;;;;;5101050;28;19922;-66
2023/04/07 12:56:13;;;;;;;;;;;17.90;99.90;;;;;;5100154;28;19908;-67
2023/04/07 12:58:40;;;;;;;;;;;17.80;99.90;;;;;;5099213;28;19961;-67
2023/04/07 13:01:06;;;;;;;;;;;17.80;99.90;;;;;;5099811;28;20356;-66
2023/04/07 13:03:33;;;;;;;;;;;17.80;99.90;;;;;;5098519;28;19907;-69
2023/04/07 13:06:01;;;;;;;;;;;17.70;99.90;;;;;;5082732;28;19911;-66
2023/04/07 13:08:28;;;;;;;;;;;17.70;99.90;;;;;;5098058;28;19912;-66
2023/04/07 13:10:55;;;;;;;;;;;17.60;99.90;;;;;;5100186;28;19908;-66
2023/04/07 13:13:22;;;;;;;;;;;17.70;99.90;;;;;;5098209;28;19923;-67
2023/04/07 13:15:48;;;;;;;;;;;17.50;99.90;;;;;;5100093;28;19912;-66
2023/04/07 13:18:15;;;;;;;;;;;17.50;99.90;;;;;;5100536;28;19980;-70
2023/04/07 13:20:42;;;;;;;;;;;17.60;99.90;;;;;;5098249;28;19907;-68
2023/04/07 13:23:09;;;;;;;;;;;17.60;99.90;;;;;;5099682;28;19914;-67
2023/04/07 13:25:36;;;;;;;;;;;17.60;99.90;;;;;;5098133;28;19961;-68
2023/04/07 13:28:02;;;;;;;;;;;17.60;99.90;;;;;;5100380;28;19908;-67
2023/04/07 13:30:29;;;;;;;;;;;17.70;99.90;;;;;;5097479;28;20603;-67
2023/04/07 13:32:56;;;;;;;;;;;17.70;99.90;;;;;;5099757;28;19920;-67
2023/04/07 13:35:23;;;;;;;;;;;17.60;99.90;;;;;;5098278;28;19908;-68
2023/04/07 13:37:49;;;;;;;;;;;17.70;99.90;;;;;;5099116;28;19915;-67
2023/04/07 13:40:16;;;;;;;;;;;17.70;99.90;;;;;;5099101;28;19919;-66
2023/04/07 13:42:43;;;;;;;;;;;17.60;99.90;;;;;;5097435;28;19912;-67
2023/04/07 13:45:09;;;;;;;;;;;17.70;99.90;;;;;;5099900;28;19908;-66
2023/04/07 13:47:36;;;;;;;;;;;17.60;99.90;;;;;;5097448;28;19981;-67
2023/04/07 13:50:03;;;;;;;;;;;17.70;99.90;;;;;;5099625;28;20421;-66
2023/04/07 13:52:33;;;;;;;;;;;17.70;99.90;;;;;;5096830;28;19923;-67
2023/04/07 13:55:02;;;;;;;;;;;17.60;99.90;;;;;;5099073;28;20110;-67
2023/04/07 13:57:29;;;;;;;;;;;17.60;99.90;;;;;;5097313;28;19908;-68
2023/04/07 13:59:56;;;;;;;;;;;17.60;99.90;;;;;;5099595;28;19914;-67
2023/04/07 14:02:23;;;;;;;;;;;17.50;99.90;;;;;;5099437;28;19908;-67
2023/04/07 14:04:49;;;;;;;;;;;17.50;99.90;;;;;;5096881;28;20031;-65
2023/04/07 14:07:16;;;;;;;;;;;17.50;99.90;;;;;;5098619;28;19908;-66
2023/04/07 14:09:43;;;;;;;;;;;17.50;99.90;;;;;;5097302;28;19961;-66
2023/04/07 14:12:09;;;;;;;;;;;17.50;99.90;;;;;;5099080;28;19908;-67
2023/04/07 14:14:36;;;;;;;;;;;17.50;99.90;;;;;;5096675;28;20121;-67
2023/04/07 14:17:03;;;;;;;;;;;17.50;99.90;;;;;;5099161;28;20365;-65
2023/04/07 14:19:30;;;;;;;;;;;17.50;99.90;;;;;;5097166;28;20339;-67